sensor_id;sensor_type;location;lat;lon;timestamp;P1;durP1;ratioP1;P2;durP2;ratioP2
28459;SDS011;32528;45.712;9.192;2023-06-14T17:22:51;5.57;;;2.97;;
28459;SDS011;32528;45.712;9.192;2023-06-14T17:24:52;10.02;;;2.88;;
28459;SDS011;32528;45.712;9.192;2023-06-14T17:26:54;6.00;;;3.00;;
28459;SDS011;32528;45.712;9.192;2023-06-14T17:28:56;7.90;;;3.22;;
28459;SDS011;32528;45.712;9.192;2023-06-14T17:30:57;5.82;;;3.10;;
28459;SDS011;32528;45.712;9.192;2023-06-14T17:32:58;6.53;;;3.20;;
28459;SDS011;32528;45.712;9.192;2023-06-14T17:34:59;7.73;;;2.93;;
28459;SDS011;32528;45.712;9.192;2023-06-14T17:36:59;8.45;;;2.97;;
28459;SDS011;32528;45.712;9.192;2023-06-14T17:39:01;5.55;;;2.58;;
28459;SDS011;32528;45.712;9.192;2023-06-14T17:41:03;6.57;;;2.90;;
28459;SDS011;32528;45.712;9.192;2023-06-14T17:43:08;6.53;;;3.28;;
28459;SDS011;32528;45.712;9.192;2023-06-14T17:45:09;7.07;;;2.93;;
28459;SDS011;32528;45.712;9.192;2023-06-14T17:47:12;8.43;;;3.20;;
28459;SDS011;32528;45.712;9.192;2023-06-14T17:49:12;7.95;;;3.90;;
28459;SDS011;32528;45.712;9.192;2023-06-14T17:51:13;7.20;;;2.90;;
28459;SDS011;32528;45.712;9.192;2023-06-14T17:53:15;5.78;;;2.90;;
28459;SDS011;32528;45.712;9.192;2023-06-14T17:55:16;9.93;;;3.53;;
28459;SDS011;32528;45.712;9.192;2023-06-14T17:57:16;8.05;;;4.03;;
28459;SDS011;32528;45.712;9.192;2023-06-14T17:59:17;8.10;;;3.43;;
28459;SDS011;32528;45.712;9.192;2023-06-14T18:01:18;7.78;;;3.38;;
28459;SDS011;32528;45.712;9.192;2023-06-14T18:03:21;6.25;;;3.22;;
28459;SDS011;32528;45.712;9.192;2023-06-14T18:05:22;6.87;;;3.73;;
28459;SDS011;32528;45.712;9.192;2023-06-14T18:07:22;7.80;;;3.55;;
28459;SDS011;32528;45.712;9.192;2023-06-14T18:09:23;9.18;;;3.83;;
28459;SDS011;32528;45.712;9.192;2023-06-14T18:11:24;10.17;;;4.40;;
28459;SDS011;32528;45.712;9.192;2023-06-14T18:13:25;9.57;;;3.88;;
28459;SDS011;32528;45.712;9.192;2023-06-14T18:15:26;9.20;;;3.97;;
28459;SDS011;32528;45.712;9.192;2023-06-14T18:17:26;6.45;;;3.97;;
28459;SDS011;32528;45.712;9.192;2023-06-14T18:19:27;8.97;;;3.80;;
28459;SDS011;32528;45.712;9.192;2023-06-14T18:21:28;6.68;;;3.72;;
28459;SDS011;32528;45.712;9.192;2023-06-14T18:23:29;6.40;;;4.03;;
28459;SDS011;32528;45.712;9.192;2023-06-14T18:25:30;10.27;;;4.07;;
28459;SDS011;32528;45.712;9.192;2023-06-14T18:27:31;8.53;;;4.00;;
28459;SDS011;32528;45.712;9.192;2023-06-14T18:29:31;8.02;;;3.92;;
28459;SDS011;32528;45.712;9.192;2023-06-14T18:31:34;8.93;;;4.30;;
28459;SDS011;32528;45.712;9.192;2023-06-14T18:33:35;9.23;;;4.27;;
28459;SDS011;32528;45.712;9.192;2023-06-14T18:35:35;7.75;;;4.50;;
28459;SDS011;32528;45.712;9.192;2023-06-14T18:37:36;6.60;;;3.65;;
28459;SDS011;32528;45.712;9.192;2023-06-14T18:39:38;10.30;;;4.63;;
28459;SDS011;32528;45.712;9.192;2023-06-14T18:41:38;6.70;;;3.63;;
28459;SDS011;32528;45.712;9.192;2023-06-14T18:43:39;6.95;;;4.03;;
28459;SDS011;32528;45.712;9.192;2023-06-14T18:45:40;12.10;;;4.63;;
28459;SDS011;32528;45.712;9.192;2023-06-14T18:47:40;10.23;;;4.38;;
28459;SDS011;32528;45.712;9.192;2023-06-14T18:49:41;10.75;;;4.30;;
28459;SDS011;32528;45.712;9.192;2023-06-14T18:51:42;14.60;;;3.80;;
28459;SDS011;32528;45.712;9.192;2023-06-14T18:53:43;6.72;;;3.80;;
28459;SDS011;32528;45.712;9.192;2023-06-14T18:55:43;7.43;;;3.70;;
28459;SDS011;32528;45.712;9.192;2023-06-14T18:57:46;8.98;;;4.32;;
28459;SDS011;32528;45.712;9.192;2023-06-14T18:59:47;8.05;;;3.80;;
28459;SDS011;32528;45.712;9.192;2023-06-14T19:01:48;7.30;;;3.60;;
28459;SDS011;32528;45.712;9.192;2023-06-14T19:03:48;9.13;;;3.70;;
28459;SDS011;32528;45.712;9.192;2023-06-14T19:05:49;6.77;;;3.37;;
28459;SDS011;32528;45.712;9.192;2023-06-14T19:07:51;7.40;;;3.25;;
28459;SDS011;32528;45.712;9.192;2023-06-14T19:09:51;7.28;;;3.42;;
28459;SDS011;32528;45.712;9.192;2023-06-14T19:11:53;5.90;;;3.00;;
28459;SDS011;32528;45.712;9.192;2023-06-14T19:13:53;10.95;;;3.20;;
28459;SDS011;32528;45.712;9.192;2023-06-14T19:15:54;8.75;;;3.72;;
28459;SDS011;32528;45.712;9.192;2023-06-14T19:17:58;5.85;;;3.17;;
28459;SDS011;32528;45.712;9.192;2023-06-14T19:20:01;7.80;;;3.25;;
28459;SDS011;32528;45.712;9.192;2023-06-14T19:22:02;12.03;;;3.50;;
28459;SDS011;32528;45.712;9.192;2023-06-14T19:24:03;7.68;;;3.88;;
28459;SDS011;32528;45.712;9.192;2023-06-14T19:26:05;8.02;;;3.17;;
28459;SDS011;32528;45.712;9.192;2023-06-14T19:28:06;7.72;;;3.75;;
28459;SDS011;32528;45.712;9.192;2023-06-14T19:30:07;9.97;;;3.20;;
28459;SDS011;32528;45.712;9.192;2023-06-14T19:32:09;10.40;;;3.60;;
28459;SDS011;32528;45.712;9.192;2023-06-14T19:34:09;7.30;;;3.27;;
28459;SDS011;32528;45.712;9.192;2023-06-14T19:36:10;7.60;;;3.67;;
28459;SDS011;32528;45.712;9.192;2023-06-14T19:38:11;10.17;;;4.10;;
28459;SDS011;32528;45.712;9.192;2023-06-14T19:40:13;8.30;;;3.83;;
28459;SDS011;32528;45.712;9.192;2023-06-14T19:42:15;11.88;;;3.67;;
28459;SDS011;32528;45.712;9.192;2023-06-14T19:44:15;12.55;;;4.32;;
28459;SDS011;32528;45.712;9.192;2023-06-14T19:46:17;12.10;;;3.80;;
28459;SDS011;32528;45.712;9.192;2023-06-14T19:48:19;12.50;;;4.82;;
28459;SDS011;32528;45.712;9.192;2023-06-14T19:50:20;8.23;;;3.38;;
28459;SDS011;32528;45.712;9.192;2023-06-14T19:52:22;15.18;;;4.05;;
28459;SDS011;32528;45.712;9.192;2023-06-14T19:54:23;9.23;;;3.78;;
28459;SDS011;32528;45.712;9.192;2023-06-14T19:56:24;18.40;;;4.37;;
28459;SDS011;32528;45.712;9.192;2023-06-14T19:58:25;7.95;;;4.10;;
28459;SDS011;32528;45.712;9.192;2023-06-14T20:00:25;9.27;;;4.40;;
28459;SDS011;32528;45.712;9.192;2023-06-14T20:02:27;9.70;;;4.00;;
28459;SDS011;32528;45.712;9.192;2023-06-14T20:04:27;15.25;;;4.10;;
28459;SDS011;32528;45.712;9.192;2023-06-14T20:06:28;8.73;;;3.88;;
28459;SDS011;32528;45.712;9.192;2023-06-14T20:08:29;8.23;;;3.70;;
28459;SDS011;32528;45.712;9.192;2023-06-14T20:10:31;11.13;;;4.15;;
28459;SDS011;32528;45.712;9.192;2023-06-14T20:12:32;12.50;;;3.88;;
28459;SDS011;32528;45.712;9.192;2023-06-14T20:14:33;8.63;;;3.90;;
28459;SDS011;32528;45.712;9.192;2023-06-14T20:16:33;8.30;;;3.17;;
28459;SDS011;32528;45.712;9.192;2023-06-14T20:18:34;9.67;;;3.47;;
28459;SDS011;32528;45.712;9.192;2023-06-14T20:20:35;6.72;;;3.75;;
28459;SDS011;32528;45.712;9.192;2023-06-14T20:22:35;10.97;;;4.03;;
28459;SDS011;32528;45.712;9.192;2023-06-14T20:24:39;9.20;;;3.42;;
28459;SDS011;32528;45.712;9.192;2023-06-14T20:26:40;9.93;;;3.42;;
28459;SDS011;32528;45.712;9.192;2023-06-14T20:28:40;12.10;;;3.23;;
28459;SDS011;32528;45.712;9.192;2023-06-14T20:30:41;9.10;;;3.80;;
28459;SDS011;32528;45.712;9.192;2023-06-14T20:32:42;6.77;;;3.23;;
28459;SDS011;32528;45.712;9.192;2023-06-14T20:34:43;8.63;;;3.47;;
28459;SDS011;32528;45.712;9.192;2023-06-14T20:36:44;10.80;;;3.47;;
28459;SDS011;32528;45.712;9.192;2023-06-14T20:38:45;10.60;;;3.87;;
28459;SDS011;32528;45.712;9.192;2023-06-14T20:40:45;6.63;;;3.60;;
28459;SDS011;32528;45.712;9.192;2023-06-14T20:42:47;8.85;;;3.85;;
28459;SDS011;32528;45.712;9.192;2023-06-14T20:44:48;8.98;;;4.72;;
28459;SDS011;32528;45.712;9.192;2023-06-14T20:46:49;10.13;;;4.53;;
28459;SDS011;32528;45.712;9.192;2023-06-14T20:48:49;12.20;;;3.97;;
28459;SDS011;32528;45.712;9.192;2023-06-14T20:50:50;11.20;;;3.90;;
28459;SDS011;32528;45.712;9.192;2023-06-14T20:52:52;11.40;;;4.28;;
28459;SDS011;32528;45.712;9.192;2023-06-14T20:54:53;8.98;;;4.47;;
28459;SDS011;32528;45.712;9.192;2023-06-14T20:56:57;10.73;;;4.50;;
28459;SDS011;32528;45.712;9.192;2023-06-14T20:58:58;17.08;;;5.75;;
28459;SDS011;32528;45.712;9.192;2023-06-14T21:01:00;10.97;;;5.77;;
28459;SDS011;32528;45.712;9.192;2023-06-14T21:03:02;12.60;;;5.85;;
28459;SDS011;32528;45.712;9.192;2023-06-14T21:05:03;12.57;;;6.10;;
28459;SDS011;32528;45.712;9.192;2023-06-14T21:07:05;11.60;;;6.90;;
28459;SDS011;32528;45.712;9.192;2023-06-14T21:09:06;14.00;;;7.53;;
28459;SDS011;32528;45.712;9.192;2023-06-14T21:11:07;13.13;;;7.43;;
28459;SDS011;32528;45.712;9.192;2023-06-14T21:13:07;13.67;;;7.77;;
28459;SDS011;32528;45.712;9.192;2023-06-14T21:15:08;19.10;;;8.10;;
28459;SDS011;32528;45.712;9.192;2023-06-14T21:17:09;13.95;;;7.13;;
28459;SDS011;32528;45.712;9.192;2023-06-14T21:19:10;14.10;;;7.73;;
28459;SDS011;32528;45.712;9.192;2023-06-14T21:21:11;13.98;;;8.00;;
28459;SDS011;32528;45.712;9.192;2023-06-14T21:23:12;15.25;;;7.57;;
28459;SDS011;32528;45.712;9.192;2023-06-14T21:25:14;15.23;;;7.88;;
28459;SDS011;32528;45.712;9.192;2023-06-14T21:27:15;16.70;;;7.38;;
28459;SDS011;32528;45.712;9.192;2023-06-14T21:29:17;12.40;;;7.65;;
28459;SDS011;32528;45.712;9.192;2023-06-14T21:31:18;15.27;;;7.20;;
28459;SDS011;32528;45.712;9.192;2023-06-14T21:33:20;13.05;;;7.80;;
28459;SDS011;32528;45.712;9.192;2023-06-14T21:35:23;13.00;;;8.15;;
28459;SDS011;32528;45.712;9.192;2023-06-14T21:37:24;14.57;;;8.43;;
28459;SDS011;32528;45.712;9.192;2023-06-14T21:39:24;15.97;;;7.67;;
28459;SDS011;32528;45.712;9.192;2023-06-14T21:41:26;17.20;;;9.23;;
28459;SDS011;32528;45.712;9.192;2023-06-14T21:43:29;15.80;;;9.55;;
28459;SDS011;32528;45.712;9.192;2023-06-14T21:45:30;20.65;;;9.85;;
28459;SDS011;32528;45.712;9.192;2023-06-14T21:47:31;16.77;;;8.80;;
28459;SDS011;32528;45.712;9.192;2023-06-14T21:49:32;11.27;;;8.05;;
28459;SDS011;32528;45.712;9.192;2023-06-14T21:51:33;12.93;;;8.95;;
28459;SDS011;32528;45.712;9.192;2023-06-14T21:53:34;15.65;;;9.80;;
28459;SDS011;32528;45.712;9.192;2023-06-14T21:55:35;14.45;;;9.50;;
28459;SDS011;32528;45.712;9.192;2023-06-14T21:57:36;13.90;;;9.37;;
28459;SDS011;32528;45.712;9.192;2023-06-14T21:59:37;14.18;;;9.15;;
28459;SDS011;32528;45.712;9.192;2023-06-14T22:01:37;15.47;;;9.13;;
28459;SDS011;32528;45.712;9.192;2023-06-14T22:03:38;15.02;;;8.98;;
28459;SDS011;32528;45.712;9.192;2023-06-14T22:05:39;20.05;;;10.82;;
28459;SDS011;32528;45.712;9.192;2023-06-14T22:07:39;18.87;;;9.43;;
28459;SDS011;32528;45.712;9.192;2023-06-14T22:09:40;17.05;;;9.45;;
28459;SDS011;32528;45.712;9.192;2023-06-14T22:11:44;14.73;;;9.32;;
28459;SDS011;32528;45.712;9.192;2023-06-14T22:13:45;16.20;;;9.82;;
28459;SDS011;32528;45.712;9.192;2023-06-14T22:15:47;13.25;;;9.30;;
28459;SDS011;32528;45.712;9.192;2023-06-14T22:17:49;14.48;;;8.80;;
28459;SDS011;32528;45.712;9.192;2023-06-14T22:19:51;11.57;;;8.70;;
28459;SDS011;32528;45.712;9.192;2023-06-14T22:21:52;16.20;;;9.90;;
28459;SDS011;32528;45.712;9.192;2023-06-14T22:23:57;13.20;;;8.93;;
28459;SDS011;32528;45.712;9.192;2023-06-14T22:26:00;12.63;;;9.10;;
28459;SDS011;32528;45.712;9.192;2023-06-14T22:28:00;15.98;;;8.98;;
28459;SDS011;32528;45.712;9.192;2023-06-14T22:30:03;13.85;;;9.05;;
28459;SDS011;32528;45.712;9.192;2023-06-14T22:32:04;13.43;;;9.02;;
28459;SDS011;32528;45.712;9.192;2023-06-14T22:34:05;12.98;;;8.93;;
28459;SDS011;32528;45.712;9.192;2023-06-14T22:36:08;13.70;;;8.90;;
28459;SDS011;32528;45.712;9.192;2023-06-14T22:38:09;16.05;;;9.77;;
28459;SDS011;32528;45.712;9.192;2023-06-14T22:40:11;15.25;;;9.05;;
28459;SDS011;32528;45.712;9.192;2023-06-14T22:42:14;14.13;;;8.73;;
28459;SDS011;32528;45.712;9.192;2023-06-14T22:44:17;14.15;;;9.23;;
28459;SDS011;32528;45.712;9.192;2023-06-14T22:46:18;14.00;;;9.10;;
28459;SDS011;32528;45.712;9.192;2023-06-14T22:48:23;12.90;;;8.80;;
28459;SDS011;32528;45.712;9.192;2023-06-14T22:50:23;14.40;;;9.15;;
28459;SDS011;32528;45.712;9.192;2023-06-14T22:52:25;13.65;;;8.35;;
28459;SDS011;32528;45.712;9.192;2023-06-14T22:54:29;14.55;;;10.10;;
28459;SDS011;32528;45.712;9.192;2023-06-14T22:56:30;15.23;;;9.83;;
28459;SDS011;32528;45.712;9.192;2023-06-14T22:58:30;16.00;;;9.60;;
28459;SDS011;32528;45.712;9.192;2023-06-14T23:00:32;13.07;;;8.57;;
28459;SDS011;32528;45.712;9.192;2023-06-14T23:02:33;14.18;;;9.13;;
28459;SDS011;32528;45.712;9.192;2023-06-14T23:04:34;15.63;;;9.27;;
28459;SDS011;32528;45.712;9.192;2023-06-14T23:06:35;14.70;;;9.77;;
28459;SDS011;32528;45.712;9.192;2023-06-14T23:08:36;17.15;;;10.07;;
28459;SDS011;32528;45.712;9.192;2023-06-14T23:10:44;14.60;;;10.10;;
28459;SDS011;32528;45.712;9.192;2023-06-14T23:12:45;16.05;;;11.30;;
28459;SDS011;32528;45.712;9.192;2023-06-14T23:14:46;19.35;;;9.27;;
28459;SDS011;32528;45.712;9.192;2023-06-14T23:16:49;15.82;;;9.43;;
28459;SDS011;32528;45.712;9.192;2023-06-14T23:18:49;16.65;;;9.82;;
28459;SDS011;32528;45.712;9.192;2023-06-14T23:20:51;14.07;;;9.45;;
28459;SDS011;32528;45.712;9.192;2023-06-14T23:22:52;15.35;;;9.95;;
28459;SDS011;32528;45.712;9.192;2023-06-14T23:24:53;13.18;;;9.02;;
28459;SDS011;32528;45.712;9.192;2023-06-14T23:26:55;13.13;;;9.15;;
28459;SDS011;32528;45.712;9.192;2023-06-14T23:29:00;16.70;;;9.52;;
28459;SDS011;32528;45.712;9.192;2023-06-14T23:31:02;12.00;;;8.63;;
28459;SDS011;32528;45.712;9.192;2023-06-14T23:33:14;14.60;;;9.73;;
28459;SDS011;32528;45.712;9.192;2023-06-14T23:35:15;17.90;;;9.38;;
28459;SDS011;32528;45.712;9.192;2023-06-14T23:37:18;13.35;;;8.57;;
28459;SDS011;32528;45.712;9.192;2023-06-14T23:39:19;16.73;;;9.63;;
28459;SDS011;32528;45.712;9.192;2023-06-14T23:41:21;14.27;;;8.90;;
28459;SDS011;32528;45.712;9.192;2023-06-14T23:43:30;14.55;;;9.18;;
28459;SDS011;32528;45.712;9.192;2023-06-14T23:45:31;18.42;;;9.48;;
28459;SDS011;32528;45.712;9.192;2023-06-14T23:47:33;13.23;;;9.30;;
28459;SDS011;32528;45.712;9.192;2023-06-14T23:49:34;15.23;;;10.13;;
28459;SDS011;32528;45.712;9.192;2023-06-14T23:51:35;14.67;;;10.37;;
28459;SDS011;32528;45.712;9.192;2023-06-14T23:53:37;13.30;;;9.23;;
28459;SDS011;32528;45.712;9.192;2023-06-14T23:55:38;14.82;;;9.50;;
28459;SDS011;32528;45.712;9.192;2023-06-14T23:57:39;13.13;;;8.90;;
28459;SDS011;32528;45.712;9.192;2023-06-14T23:59:40;13.93;;;10.40;;
